sensor_id;sensor_type;location;lat;lon;timestamp;P1;durP1;ratioP1;P2;durP2;ratioP2
44816;SDS011;30529;53.570;9.964;2023-02-24T00:01:49;9.43;;;1.97;;
44816;SDS011;30529;53.570;9.964;2023-02-24T00:04:17;8.07;;;1.50;;
44816;SDS011;30529;53.570;9.964;2023-02-24T00:06:45;9.70;;;2.00;;
44816;SDS011;30529;53.570;9.964;2023-02-24T00:09:13;6.97;;;1.70;;
44816;SDS011;30529;53.570;9.964;2023-02-24T00:11:41;5.20;;;1.37;;
44816;SDS011;30529;53.570;9.964;2023-02-24T00:14:10;5.40;;;1.60;;
44816;SDS011;30529;53.570;9.964;2023-02-24T00:16:42;4.87;;;1.50;;
44816;SDS011;30529;53.570;9.964;2023-02-24T00:19:11;3.23;;;1.17;;
44816;SDS011;30529;53.570;9.964;2023-02-24T00:21:42;7.70;;;1.30;;
44816;SDS011;30529;53.570;9.964;2023-02-24T00:24:09;5.77;;;1.80;;
44816;SDS011;30529;53.570;9.964;2023-02-24T00:26:36;7.60;;;1.70;;
44816;SDS011;30529;53.570;9.964;2023-02-24T00:29:06;6.53;;;1.33;;
44816;SDS011;30529;53.570;9.964;2023-02-24T00:31:34;6.73;;;1.47;;
44816;SDS011;30529;53.570;9.964;2023-02-24T00:34:04;7.37;;;1.33;;
44816;SDS011;30529;53.570;9.964;2023-02-24T00:36:31;6.00;;;1.20;;
44816;SDS011;30529;53.570;9.964;2023-02-24T00:38:59;5.23;;;1.70;;
44816;SDS011;30529;53.570;9.964;2023-02-24T00:41:33;6.80;;;1.47;;
44816;SDS011;30529;53.570;9.964;2023-02-24T00:44:02;3.37;;;1.47;;
44816;SDS011;30529;53.570;9.964;2023-02-24T00:46:32;9.00;;;1.50;;
44816;SDS011;30529;53.570;9.964;2023-02-24T00:49:02;6.50;;;1.60;;
44816;SDS011;30529;53.570;9.964;2023-02-24T00:51:31;11.40;;;1.57;;
44816;SDS011;30529;53.570;9.964;2023-02-24T00:54:00;10.07;;;1.73;;
44816;SDS011;30529;53.570;9.964;2023-02-24T00:56:27;6.07;;;1.20;;
44816;SDS011;30529;53.570;9.964;2023-02-24T00:58:57;2.67;;;1.13;;
44816;SDS011;30529;53.570;9.964;2023-02-24T01:01:28;11.77;;;2.17;;
44816;SDS011;30529;53.570;9.964;2023-02-24T01:03:56;7.30;;;1.77;;
44816;SDS011;30529;53.570;9.964;2023-02-24T01:06:24;5.53;;;1.30;;
44816;SDS011;30529;53.570;9.964;2023-02-24T01:08:53;4.67;;;1.23;;
44816;SDS011;30529;53.570;9.964;2023-02-24T01:11:21;7.40;;;1.30;;
44816;SDS011;30529;53.570;9.964;2023-02-24T01:14:08;5.10;;;1.23;;
44816;SDS011;30529;53.570;9.964;2023-02-24T01:16:40;9.87;;;2.40;;
44816;SDS011;30529;53.570;9.964;2023-02-24T01:19:09;6.50;;;1.40;;
44816;SDS011;30529;53.570;9.964;2023-02-24T01:21:38;6.80;;;1.57;;
44816;SDS011;30529;53.570;9.964;2023-02-24T01:24:04;5.33;;;1.47;;
44816;SDS011;30529;53.570;9.964;2023-02-24T01:26:30;8.00;;;1.40;;
44816;SDS011;30529;53.570;9.964;2023-02-24T01:28:56;6.07;;;1.73;;
44816;SDS011;30529;53.570;9.964;2023-02-24T01:31:22;7.53;;;1.23;;
44816;SDS011;30529;53.570;9.964;2023-02-24T01:33:49;5.93;;;1.60;;
44816;SDS011;30529;53.570;9.964;2023-02-24T01:36:17;10.00;;;1.30;;
44816;SDS011;30529;53.570;9.964;2023-02-24T01:38:46;3.83;;;1.00;;
44816;SDS011;30529;53.570;9.964;2023-02-24T01:41:15;6.13;;;1.50;;
44816;SDS011;30529;53.570;9.964;2023-02-24T01:44:01;5.10;;;1.30;;
44816;SDS011;30529;53.570;9.964;2023-02-24T01:46:42;6.27;;;1.73;;
44816;SDS011;30529;53.570;9.964;2023-02-24T01:49:17;4.83;;;1.10;;
44816;SDS011;30529;53.570;9.964;2023-02-24T01:54:17;7.37;;;1.70;;
44816;SDS011;30529;53.570;9.964;2023-02-24T01:56:48;8.73;;;1.93;;
44816;SDS011;30529;53.570;9.964;2023-02-24T01:59:16;3.93;;;1.47;;
44816;SDS011;30529;53.570;9.964;2023-02-24T02:01:47;6.63;;;1.30;;
44816;SDS011;30529;53.570;9.964;2023-02-24T02:04:23;9.97;;;1.80;;
44816;SDS011;30529;53.570;9.964;2023-02-24T02:07:15;6.13;;;1.30;;
44816;SDS011;30529;53.570;9.964;2023-02-24T02:09:42;5.83;;;1.30;;
44816;SDS011;30529;53.570;9.964;2023-02-24T02:12:11;5.43;;;1.30;;
44816;SDS011;30529;53.570;9.964;2023-02-24T02:14:38;6.43;;;1.40;;
44816;SDS011;30529;53.570;9.964;2023-02-24T02:17:11;11.07;;;1.70;;
44816;SDS011;30529;53.570;9.964;2023-02-24T02:32:00;7.00;;;1.30;;
44816;SDS011;30529;53.570;9.964;2023-02-24T02:37:29;7.63;;;1.60;;
44816;SDS011;30529;53.570;9.964;2023-02-24T02:40:51;8.33;;;1.57;;
44816;SDS011;30529;53.570;9.964;2023-02-24T02:43:17;5.53;;;1.80;;
44816;SDS011;30529;53.570;9.964;2023-02-24T02:48:31;3.77;;;1.20;;
44816;SDS011;30529;53.570;9.964;2023-02-24T02:51:04;8.47;;;2.43;;
44816;SDS011;30529;53.570;9.964;2023-02-24T02:53:46;6.90;;;2.13;;
44816;SDS011;30529;53.570;9.964;2023-02-24T02:56:36;8.70;;;1.60;;
44816;SDS011;30529;53.570;9.964;2023-02-24T02:59:10;4.23;;;1.27;;
44816;SDS011;30529;53.570;9.964;2023-02-24T03:01:40;7.63;;;1.30;;
44816;SDS011;30529;53.570;9.964;2023-02-24T03:04:08;7.20;;;1.77;;
44816;SDS011;30529;53.570;9.964;2023-02-24T03:07:02;7.13;;;1.27;;
44816;SDS011;30529;53.570;9.964;2023-02-24T03:09:29;4.53;;;1.27;;
44816;SDS011;30529;53.570;9.964;2023-02-24T03:12:20;4.53;;;1.70;;
44816;SDS011;30529;53.570;9.964;2023-02-24T03:14:48;8.30;;;2.13;;
44816;SDS011;30529;53.570;9.964;2023-02-24T03:17:23;5.17;;;1.53;;
44816;SDS011;30529;53.570;9.964;2023-02-24T03:19:56;7.07;;;1.33;;
44816;SDS011;30529;53.570;9.964;2023-02-24T03:23:02;5.10;;;1.60;;
44816;SDS011;30529;53.570;9.964;2023-02-24T03:25:41;6.50;;;1.50;;
44816;SDS011;30529;53.570;9.964;2023-02-24T03:28:25;3.93;;;1.07;;
44816;SDS011;30529;53.570;9.964;2023-02-24T03:31:00;7.40;;;1.63;;
44816;SDS011;30529;53.570;9.964;2023-02-24T03:34:09;7.73;;;1.60;;
44816;SDS011;30529;53.570;9.964;2023-02-24T03:36:42;4.20;;;1.07;;
44816;SDS011;30529;53.570;9.964;2023-02-24T03:39:09;7.70;;;1.40;;
44816;SDS011;30529;53.570;9.964;2023-02-24T03:41:38;6.53;;;1.40;;
44816;SDS011;30529;53.570;9.964;2023-02-24T03:44:10;4.50;;;1.20;;
44816;SDS011;30529;53.570;9.964;2023-02-24T03:46:37;4.63;;;1.10;;
44816;SDS011;30529;53.570;9.964;2023-02-24T03:49:07;5.70;;;1.30;;
44816;SDS011;30529;53.570;9.964;2023-02-24T03:51:42;6.20;;;1.40;;
44816;SDS011;30529;53.570;9.964;2023-02-24T03:54:18;9.40;;;1.30;;
44816;SDS011;30529;53.570;9.964;2023-02-24T03:57:28;7.30;;;1.40;;
44816;SDS011;30529;53.570;9.964;2023-02-24T04:06:06;6.13;;;1.27;;
44816;SDS011;30529;53.570;9.964;2023-02-24T04:08:55;5.97;;;1.07;;
44816;SDS011;30529;53.570;9.964;2023-02-24T04:11:37;5.97;;;1.57;;
44816;SDS011;30529;53.570;9.964;2023-02-24T04:14:06;4.13;;;1.30;;
44816;SDS011;30529;53.570;9.964;2023-02-24T04:16:47;9.20;;;1.87;;
44816;SDS011;30529;53.570;9.964;2023-02-24T04:19:21;8.53;;;2.10;;
44816;SDS011;30529;53.570;9.964;2023-02-24T04:21:52;11.60;;;2.43;;
44816;SDS011;30529;53.570;9.964;2023-02-24T04:24:20;5.33;;;1.50;;
44816;SDS011;30529;53.570;9.964;2023-02-24T04:26:55;6.23;;;2.07;;
44816;SDS011;30529;53.570;9.964;2023-02-24T04:29:25;11.40;;;2.20;;
44816;SDS011;30529;53.570;9.964;2023-02-24T04:32:01;6.67;;;1.23;;
44816;SDS011;30529;53.570;9.964;2023-02-24T04:34:32;6.43;;;1.33;;
44816;SDS011;30529;53.570;9.964;2023-02-24T04:36:59;3.07;;;1.20;;
44816;SDS011;30529;53.570;9.964;2023-02-24T04:39:27;5.07;;;1.40;;
44816;SDS011;30529;53.570;9.964;2023-02-24T04:41:54;5.83;;;1.20;;
44816;SDS011;30529;53.570;9.964;2023-02-24T04:44:22;4.40;;;1.00;;
44816;SDS011;30529;53.570;9.964;2023-02-24T04:46:49;5.67;;;1.40;;
44816;SDS011;30529;53.570;9.964;2023-02-24T04:49:16;4.83;;;1.23;;
44816;SDS011;30529;53.570;9.964;2023-02-24T04:51:43;3.70;;;1.20;;
44816;SDS011;30529;53.570;9.964;2023-02-24T04:54:10;5.03;;;1.60;;
44816;SDS011;30529;53.570;9.964;2023-02-24T04:56:45;7.40;;;1.37;;
44816;SDS011;30529;53.570;9.964;2023-02-24T04:59:16;5.33;;;1.77;;
44816;SDS011;30529;53.570;9.964;2023-02-24T05:01:43;5.50;;;1.30;;
44816;SDS011;30529;53.570;9.964;2023-02-24T05:04:10;4.77;;;1.20;;
44816;SDS011;30529;53.570;9.964;2023-02-24T05:06:41;5.63;;;1.70;;
44816;SDS011;30529;53.570;9.964;2023-02-24T05:09:15;5.63;;;1.20;;
44816;SDS011;30529;53.570;9.964;2023-02-24T05:11:46;5.47;;;1.30;;
44816;SDS011;30529;53.570;9.964;2023-02-24T05:14:14;6.53;;;1.67;;
44816;SDS011;30529;53.570;9.964;2023-02-24T05:16:43;4.90;;;1.57;;
44816;SDS011;30529;53.570;9.964;2023-02-24T05:19:11;6.97;;;1.50;;
44816;SDS011;30529;53.570;9.964;2023-02-24T05:21:57;7.40;;;1.60;;
44816;SDS011;30529;53.570;9.964;2023-02-24T05:24:26;5.17;;;1.50;;
44816;SDS011;30529;53.570;9.964;2023-02-24T05:26:54;5.83;;;1.23;;
44816;SDS011;30529;53.570;9.964;2023-02-24T05:29:27;5.87;;;1.60;;
44816;SDS011;30529;53.570;9.964;2023-02-24T05:31:55;3.97;;;1.30;;
44816;SDS011;30529;53.570;9.964;2023-02-24T05:34:25;12.13;;;1.47;;
44816;SDS011;30529;53.570;9.964;2023-02-24T05:36:52;4.77;;;1.50;;
44816;SDS011;30529;53.570;9.964;2023-02-24T05:39:18;4.50;;;1.33;;
44816;SDS011;30529;53.570;9.964;2023-02-24T05:41:46;6.60;;;1.70;;
44816;SDS011;30529;53.570;9.964;2023-02-24T05:44:18;4.80;;;1.30;;
44816;SDS011;30529;53.570;9.964;2023-02-24T05:46:47;4.80;;;1.20;;
44816;SDS011;30529;53.570;9.964;2023-02-24T05:49:16;13.50;;;2.40;;
44816;SDS011;30529;53.570;9.964;2023-02-24T05:51:52;8.27;;;2.00;;
44816;SDS011;30529;53.570;9.964;2023-02-24T05:56:57;6.13;;;1.87;;
44816;SDS011;30529;53.570;9.964;2023-02-24T05:59:27;5.93;;;1.37;;
44816;SDS011;30529;53.570;9.964;2023-02-24T06:01:57;6.60;;;1.33;;
44816;SDS011;30529;53.570;9.964;2023-02-24T06:04:25;8.07;;;1.50;;
44816;SDS011;30529;53.570;9.964;2023-02-24T06:07:10;4.10;;;1.30;;
44816;SDS011;30529;53.570;9.964;2023-02-24T06:09:39;6.40;;;2.00;;
44816;SDS011;30529;53.570;9.964;2023-02-24T06:12:09;5.13;;;1.30;;
44816;SDS011;30529;53.570;9.964;2023-02-24T06:14:36;6.17;;;1.50;;
44816;SDS011;30529;53.570;9.964;2023-02-24T06:17:03;7.27;;;1.80;;
44816;SDS011;30529;53.570;9.964;2023-02-24T06:19:29;5.20;;;1.27;;
44816;SDS011;30529;53.570;9.964;2023-02-24T06:21:58;5.43;;;1.73;;
44816;SDS011;30529;53.570;9.964;2023-02-24T06:24:37;18.60;;;2.10;;
44816;SDS011;30529;53.570;9.964;2023-02-24T06:27:09;7.17;;;2.03;;
44816;SDS011;30529;53.570;9.964;2023-02-24T06:29:51;6.83;;;1.80;;
44816;SDS011;30529;53.570;9.964;2023-02-24T06:32:19;17.70;;;2.43;;
44816;SDS011;30529;53.570;9.964;2023-02-24T06:34:48;8.20;;;1.73;;
44816;SDS011;30529;53.570;9.964;2023-02-24T06:37:16;11.40;;;2.13;;
44816;SDS011;30529;53.570;9.964;2023-02-24T06:39:42;11.57;;;2.33;;
44816;SDS011;30529;53.570;9.964;2023-02-24T06:42:09;15.23;;;2.30;;
44816;SDS011;30529;53.570;9.964;2023-02-24T06:44:36;7.17;;;2.13;;
44816;SDS011;30529;53.570;9.964;2023-02-24T06:47:05;5.07;;;1.67;;
44816;SDS011;30529;53.570;9.964;2023-02-24T06:49:32;6.47;;;1.70;;
44816;SDS011;30529;53.570;9.964;2023-02-24T06:51:58;6.43;;;1.60;;
44816;SDS011;30529;53.570;9.964;2023-02-24T06:54:25;5.00;;;1.43;;
44816;SDS011;30529;53.570;9.964;2023-02-24T06:56:55;4.30;;;1.57;;
44816;SDS011;30529;53.570;9.964;2023-02-24T06:59:23;5.00;;;1.97;;
44816;SDS011;30529;53.570;9.964;2023-02-24T07:01:53;4.50;;;1.60;;
44816;SDS011;30529;53.570;9.964;2023-02-24T07:04:20;7.90;;;1.53;;
44816;SDS011;30529;53.570;9.964;2023-02-24T07:07:07;8.43;;;1.87;;
44816;SDS011;30529;53.570;9.964;2023-02-24T07:09:33;5.10;;;1.57;;
44816;SDS011;30529;53.570;9.964;2023-02-24T07:11:59;6.60;;;1.60;;
44816;SDS011;30529;53.570;9.964;2023-02-24T07:14:27;7.87;;;1.53;;
44816;SDS011;30529;53.570;9.964;2023-02-24T07:16:56;5.43;;;1.60;;
44816;SDS011;30529;53.570;9.964;2023-02-24T07:19:27;5.90;;;2.30;;
44816;SDS011;30529;53.570;9.964;2023-02-24T07:21:57;5.43;;;1.37;;
44816;SDS011;30529;53.570;9.964;2023-02-24T07:24:25;10.17;;;2.67;;
44816;SDS011;30529;53.570;9.964;2023-02-24T07:27:05;3.20;;;1.27;;
44816;SDS011;30529;53.570;9.964;2023-02-24T07:29:33;6.33;;;1.30;;
44816;SDS011;30529;53.570;9.964;2023-02-24T07:32:00;7.73;;;1.80;;
44816;SDS011;30529;53.570;9.964;2023-02-24T07:34:28;4.77;;;1.60;;
44816;SDS011;30529;53.570;9.964;2023-02-24T07:36:54;5.87;;;2.53;;
44816;SDS011;30529;53.570;9.964;2023-02-24T07:39:21;7.67;;;2.57;;
44816;SDS011;30529;53.570;9.964;2023-02-24T07:41:48;5.07;;;1.80;;
44816;SDS011;30529;53.570;9.964;2023-02-24T07:44:16;11.97;;;2.50;;
44816;SDS011;30529;53.570;9.964;2023-02-24T07:46:43;6.10;;;1.80;;
44816;SDS011;30529;53.570;9.964;2023-02-24T07:49:13;6.80;;;1.73;;
44816;SDS011;30529;53.570;9.964;2023-02-24T07:51:42;7.00;;;1.80;;
44816;SDS011;30529;53.570;9.964;2023-02-24T07:54:11;3.57;;;1.60;;
44816;SDS011;30529;53.570;9.964;2023-02-24T07:56:40;8.50;;;1.67;;
44816;SDS011;30529;53.570;9.964;2023-02-24T07:59:24;6.50;;;1.93;;
44816;SDS011;30529;53.570;9.964;2023-02-24T08:01:52;6.50;;;1.57;;
44816;SDS011;30529;53.570;9.964;2023-02-24T08:04:22;8.83;;;3.70;;
44816;SDS011;30529;53.570;9.964;2023-02-24T08:06:50;8.73;;;2.00;;
44816;SDS011;30529;53.570;9.964;2023-02-24T08:09:21;6.47;;;1.90;;
44816;SDS011;30529;53.570;9.964;2023-02-24T08:12:09;4.30;;;1.83;;
44816;SDS011;30529;53.570;9.964;2023-02-24T08:14:42;4.27;;;1.97;;
44816;SDS011;30529;53.570;9.964;2023-02-24T08:17:15;3.43;;;1.80;;
44816;SDS011;30529;53.570;9.964;2023-02-24T08:19:46;2.90;;;1.70;;
44816;SDS011;30529;53.570;9.964;2023-02-24T08:22:13;8.33;;;2.20;;
44816;SDS011;30529;53.570;9.964;2023-02-24T08:24:46;3.53;;;1.40;;
44816;SDS011;30529;53.570;9.964;2023-02-24T08:27:16;3.13;;;1.30;;
44816;SDS011;30529;53.570;9.964;2023-02-24T08:29:48;8.30;;;2.00;;
44816;SDS011;30529;53.570;9.964;2023-02-24T08:35:09;6.03;;;2.17;;
44816;SDS011;30529;53.570;9.964;2023-02-24T08:37:40;2.87;;;1.80;;
44816;SDS011;30529;53.570;9.964;2023-02-24T08:40:21;6.23;;;3.00;;
44816;SDS011;30529;53.570;9.964;2023-02-24T08:43:00;7.00;;;3.70;;
44816;SDS011;30529;53.570;9.964;2023-02-24T08:45:50;5.80;;;3.60;;
44816;SDS011;30529;53.570;9.964;2023-02-24T08:48:25;7.50;;;3.50;;
44816;SDS011;30529;53.570;9.964;2023-02-24T08:51:16;7.20;;;4.00;;
44816;SDS011;30529;53.570;9.964;2023-02-24T08:53:51;12.33;;;3.93;;
44816;SDS011;30529;53.570;9.964;2023-02-24T08:56:19;5.10;;;3.67;;
44816;SDS011;30529;53.570;9.964;2023-02-24T08:58:51;6.60;;;3.13;;
44816;SDS011;30529;53.570;9.964;2023-02-24T09:01:25;5.30;;;3.10;;
44816;SDS011;30529;53.570;9.964;2023-02-24T09:03:55;5.43;;;3.73;;
44816;SDS011;30529;53.570;9.964;2023-02-24T09:06:24;6.10;;;3.50;;
44816;SDS011;30529;53.570;9.964;2023-02-24T09:09:09;6.13;;;3.80;;
44816;SDS011;30529;53.570;9.964;2023-02-24T09:11:47;8.87;;;3.50;;
44816;SDS011;30529;53.570;9.964;2023-02-24T09:14:21;6.73;;;3.27;;
44816;SDS011;30529;53.570;9.964;2023-02-24T09:16:51;5.47;;;3.00;;
44816;SDS011;30529;53.570;9.964;2023-02-24T09:19:30;4.47;;;2.60;;
44816;SDS011;30529;53.570;9.964;2023-02-24T09:22:26;4.50;;;2.20;;
44816;SDS011;30529;53.570;9.964;2023-02-24T09:24:57;4.33;;;2.20;;
44816;SDS011;30529;53.570;9.964;2023-02-24T09:27:53;4.50;;;2.50;;
44816;SDS011;30529;53.570;9.964;2023-02-24T09:30:33;7.00;;;2.40;;
44816;SDS011;30529;53.570;9.964;2023-02-24T09:33:14;6.00;;;2.80;;
44816;SDS011;30529;53.570;9.964;2023-02-24T09:38:34;7.30;;;2.50;;
44816;SDS011;30529;53.570;9.964;2023-02-24T09:41:30;4.60;;;2.30;;
44816;SDS011;30529;53.570;9.964;2023-02-24T09:52:58;5.37;;;2.67;;
44816;SDS011;30529;53.570;9.964;2023-02-24T09:58:30;4.93;;;2.67;;
44816;SDS011;30529;53.570;9.964;2023-02-24T10:04:04;9.20;;;2.63;;
44816;SDS011;30529;53.570;9.964;2023-02-24T10:06:48;5.97;;;2.90;;
44816;SDS011;30529;53.570;9.964;2023-02-24T10:09:23;5.03;;;2.50;;
44816;SDS011;30529;53.570;9.964;2023-02-24T10:11:56;3.77;;;2.80;;
44816;SDS011;30529;53.570;9.964;2023-02-24T10:17:15;8.83;;;2.80;;
44816;SDS011;30529;53.570;9.964;2023-02-24T10:19:56;4.90;;;2.80;;
44816;SDS011;30529;53.570;9.964;2023-02-24T10:22:27;5.87;;;3.50;;
44816;SDS011;30529;53.570;9.964;2023-02-24T10:25:28;5.30;;;2.93;;
44816;SDS011;30529;53.570;9.964;2023-02-24T10:28:13;5.60;;;2.70;;
44816;SDS011;30529;53.570;9.964;2023-02-24T10:31:10;4.73;;;2.63;;
44816;SDS011;30529;53.570;9.964;2023-02-24T10:33:58;6.57;;;3.13;;
44816;SDS011;30529;53.570;9.964;2023-02-24T10:36:34;6.43;;;2.70;;
44816;SDS011;30529;53.570;9.964;2023-02-24T10:41:44;4.73;;;3.27;;
44816;SDS011;30529;53.570;9.964;2023-02-24T10:44:18;5.63;;;3.50;;
44816;SDS011;30529;53.570;9.964;2023-02-24T10:46:58;7.13;;;2.83;;
44816;SDS011;30529;53.570;9.964;2023-02-24T10:49:42;4.20;;;2.27;;
44816;SDS011;30529;53.570;9.964;2023-02-24T10:52:30;3.70;;;2.43;;
44816;SDS011;30529;53.570;9.964;2023-02-24T10:55:05;4.10;;;1.90;;
44816;SDS011;30529;53.570;9.964;2023-02-24T10:57:54;6.07;;;2.20;;
44816;SDS011;30529;53.570;9.964;2023-02-24T11:00:42;5.43;;;2.53;;
44816;SDS011;30529;53.570;9.964;2023-02-24T11:03:31;5.43;;;2.33;;
44816;SDS011;30529;53.570;9.964;2023-02-24T11:06:01;2.50;;;1.90;;
44816;SDS011;30529;53.570;9.964;2023-02-24T11:08:27;4.63;;;1.87;;
44816;SDS011;30529;53.570;9.964;2023-02-24T11:13:50;3.93;;;1.70;;
44816;SDS011;30529;53.570;9.964;2023-02-24T11:16:43;3.93;;;1.63;;
44816;SDS011;30529;53.570;9.964;2023-02-24T11:19:29;3.83;;;2.03;;
44816;SDS011;30529;53.570;9.964;2023-02-24T11:21:57;4.33;;;2.10;;
44816;SDS011;30529;53.570;9.964;2023-02-24T11:24:24;3.60;;;2.00;;
44816;SDS011;30529;53.570;9.964;2023-02-24T11:26:50;3.37;;;1.73;;
44816;SDS011;30529;53.570;9.964;2023-02-24T11:35:29;4.33;;;2.27;;
44816;SDS011;30529;53.570;9.964;2023-02-24T11:38:18;4.80;;;2.23;;
44816;SDS011;30529;53.570;9.964;2023-02-24T11:41:06;3.80;;;1.80;;
44816;SDS011;30529;53.570;9.964;2023-02-24T11:43:54;3.37;;;1.87;;
44816;SDS011;30529;53.570;9.964;2023-02-24T11:46:33;3.83;;;1.97;;
44816;SDS011;30529;53.570;9.964;2023-02-24T11:49:07;5.10;;;2.40;;
44816;SDS011;30529;53.570;9.964;2023-02-24T11:51:46;4.77;;;2.20;;
44816;SDS011;30529;53.570;9.964;2023-02-24T11:54:13;5.23;;;2.03;;
44816;SDS011;30529;53.570;9.964;2023-02-24T11:56:52;2.90;;;1.80;;
44816;SDS011;30529;53.570;9.964;2023-02-24T12:04:58;2.90;;;1.73;;
44816;SDS011;30529;53.570;9.964;2023-02-24T12:07:35;7.97;;;2.40;;
44816;SDS011;30529;53.570;9.964;2023-02-24T12:10:12;4.43;;;2.10;;
44816;SDS011;30529;53.570;9.964;2023-02-24T12:13:03;5.10;;;1.90;;
44816;SDS011;30529;53.570;9.964;2023-02-24T12:16:01;3.23;;;2.47;;
44816;SDS011;30529;53.570;9.964;2023-02-24T12:18:36;4.33;;;2.20;;
44816;SDS011;30529;53.570;9.964;2023-02-24T12:21:06;5.53;;;2.37;;
44816;SDS011;30529;53.570;9.964;2023-02-24T12:23:43;4.60;;;2.20;;
44816;SDS011;30529;53.570;9.964;2023-02-24T12:29:03;7.43;;;2.30;;
44816;SDS011;30529;53.570;9.964;2023-02-24T12:34:35;5.23;;;2.57;;
44816;SDS011;30529;53.570;9.964;2023-02-24T12:37:16;11.00;;;3.10;;
44816;SDS011;30529;53.570;9.964;2023-02-24T12:42:45;6.87;;;2.10;;
44816;SDS011;30529;53.570;9.964;2023-02-24T12:48:08;6.53;;;2.57;;
44816;SDS011;30529;53.570;9.964;2023-02-24T12:53:25;6.13;;;2.90;;
44816;SDS011;30529;53.570;9.964;2023-02-24T12:56:23;6.97;;;2.30;;
44816;SDS011;30529;53.570;9.964;2023-02-24T12:58:55;6.67;;;2.53;;
44816;SDS011;30529;53.570;9.964;2023-02-24T13:01:31;8.40;;;2.80;;
44816;SDS011;30529;53.570;9.964;2023-02-24T13:09:23;4.67;;;2.63;;
44816;SDS011;30529;53.570;9.964;2023-02-24T13:14:51;5.00;;;2.43;;
44816;SDS011;30529;53.570;9.964;2023-02-24T13:17:20;8.13;;;2.80;;
44816;SDS011;30529;53.570;9.964;2023-02-24T13:19:49;7.80;;;2.87;;
44816;SDS011;30529;53.570;9.964;2023-02-24T13:22:23;9.50;;;3.60;;
44816;SDS011;30529;53.570;9.964;2023-02-24T13:24:58;12.87;;;3.60;;
44816;SDS011;30529;53.570;9.964;2023-02-24T13:27:35;11.13;;;3.80;;
44816;SDS011;30529;53.570;9.964;2023-02-24T13:30:23;9.47;;;3.07;;
44816;SDS011;30529;53.570;9.964;2023-02-24T13:35:43;5.27;;;2.37;;
44816;SDS011;30529;53.570;9.964;2023-02-24T13:38:25;12.47;;;2.40;;
44816;SDS011;30529;53.570;9.964;2023-02-24T13:44:02;11.27;;;2.70;;
44816;SDS011;30529;53.570;9.964;2023-02-24T14:03:31;9.87;;;2.60;;
44816;SDS011;30529;53.570;9.964;2023-02-24T14:05:59;14.90;;;2.33;;
44816;SDS011;30529;53.570;9.964;2023-02-24T14:11:10;12.93;;;2.13;;
44816;SDS011;30529;53.570;9.964;2023-02-24T14:13:40;13.30;;;2.67;;
44816;SDS011;30529;53.570;9.964;2023-02-24T14:16:13;9.43;;;1.90;;
44816;SDS011;30529;53.570;9.964;2023-02-24T14:18:42;5.13;;;1.67;;
44816;SDS011;30529;53.570;9.964;2023-02-24T14:21:22;6.13;;;1.83;;
44816;SDS011;30529;53.570;9.964;2023-02-24T14:23:53;7.63;;;1.70;;
44816;SDS011;30529;53.570;9.964;2023-02-24T14:26:21;10.77;;;1.93;;
44816;SDS011;30529;53.570;9.964;2023-02-24T14:28:50;13.03;;;2.57;;
44816;SDS011;30529;53.570;9.964;2023-02-24T14:31:23;12.47;;;1.97;;
44816;SDS011;30529;53.570;9.964;2023-02-24T14:33:55;9.20;;;2.20;;
44816;SDS011;30529;53.570;9.964;2023-02-24T14:36:29;6.80;;;2.10;;
44816;SDS011;30529;53.570;9.964;2023-02-24T14:39:01;9.07;;;2.10;;
44816;SDS011;30529;53.570;9.964;2023-02-24T14:41:42;8.20;;;2.27;;
44816;SDS011;30529;53.570;9.964;2023-02-24T14:46:53;11.73;;;2.47;;
44816;SDS011;30529;53.570;9.964;2023-02-24T14:49:25;12.33;;;2.40;;
44816;SDS011;30529;53.570;9.964;2023-02-24T14:51:58;15.20;;;2.57;;
44816;SDS011;30529;53.570;9.964;2023-02-24T14:57:34;10.60;;;2.07;;
44816;SDS011;30529;53.570;9.964;2023-02-24T15:00:11;10.87;;;2.03;;
44816;SDS011;30529;53.570;9.964;2023-02-24T15:02:45;17.37;;;2.37;;
44816;SDS011;30529;53.570;9.964;2023-02-24T15:05:15;12.00;;;2.40;;
44816;SDS011;30529;53.570;9.964;2023-02-24T15:07:42;8.93;;;1.77;;
44816;SDS011;30529;53.570;9.964;2023-02-24T15:10:19;7.20;;;1.70;;
44816;SDS011;30529;53.570;9.964;2023-02-24T15:12:56;11.33;;;1.80;;
44816;SDS011;30529;53.570;9.964;2023-02-24T15:15:35;6.33;;;1.80;;
44816;SDS011;30529;53.570;9.964;2023-02-24T15:18:38;10.37;;;2.47;;
44816;SDS011;30529;53.570;9.964;2023-02-24T15:21:01;6.33;;;2.10;;
44816;SDS011;30529;53.570;9.964;2023-02-24T15:23:33;6.93;;;2.20;;
44816;SDS011;30529;53.570;9.964;2023-02-24T15:26:02;5.87;;;1.50;;
44816;SDS011;30529;53.570;9.964;2023-02-24T15:28:31;7.63;;;1.93;;
44816;SDS011;30529;53.570;9.964;2023-02-24T15:31:06;10.03;;;1.47;;
44816;SDS011;30529;53.570;9.964;2023-02-24T15:33:56;6.80;;;2.03;;
44816;SDS011;30529;53.570;9.964;2023-02-24T15:36:26;6.07;;;1.40;;
44816;SDS011;30529;53.570;9.964;2023-02-24T15:39:00;9.93;;;2.00;;
44816;SDS011;30529;53.570;9.964;2023-02-24T15:41:40;6.87;;;1.27;;
44816;SDS011;30529;53.570;9.964;2023-02-24T15:44:25;7.30;;;1.60;;
44816;SDS011;30529;53.570;9.964;2023-02-24T15:46:56;8.07;;;1.83;;
44816;SDS011;30529;53.570;9.964;2023-02-24T15:49:24;8.60;;;1.63;;
44816;SDS011;30529;53.570;9.964;2023-02-24T15:51:53;8.47;;;1.83;;
44816;SDS011;30529;53.570;9.964;2023-02-24T15:54:27;6.00;;;1.43;;
44816;SDS011;30529;53.570;9.964;2023-02-24T15:56:56;7.83;;;1.30;;
44816;SDS011;30529;53.570;9.964;2023-02-24T15:59:23;8.33;;;1.30;;
44816;SDS011;30529;53.570;9.964;2023-02-24T16:01:49;7.83;;;1.87;;
44816;SDS011;30529;53.570;9.964;2023-02-24T16:04:18;6.17;;;1.73;;
44816;SDS011;30529;53.570;9.964;2023-02-24T16:06:48;7.40;;;1.80;;
44816;SDS011;30529;53.570;9.964;2023-02-24T16:09:23;11.03;;;1.80;;
44816;SDS011;30529;53.570;9.964;2023-02-24T16:11:56;9.43;;;1.73;;
44816;SDS011;30529;53.570;9.964;2023-02-24T16:14:24;10.37;;;2.03;;
44816;SDS011;30529;53.570;9.964;2023-02-24T16:16:50;7.80;;;2.17;;
44816;SDS011;30529;53.570;9.964;2023-02-24T16:19:16;7.37;;;2.77;;
44816;SDS011;30529;53.570;9.964;2023-02-24T16:21:42;10.97;;;2.13;;
44816;SDS011;30529;53.570;9.964;2023-02-24T16:24:09;8.53;;;2.17;;
44816;SDS011;30529;53.570;9.964;2023-02-24T16:26:36;7.03;;;1.90;;
44816;SDS011;30529;53.570;9.964;2023-02-24T16:29:04;9.53;;;3.07;;
44816;SDS011;30529;53.570;9.964;2023-02-24T16:31:36;7.53;;;1.67;;
44816;SDS011;30529;53.570;9.964;2023-02-24T16:34:03;5.40;;;1.40;;
44816;SDS011;30529;53.570;9.964;2023-02-24T16:36:30;8.03;;;1.73;;
44816;SDS011;30529;53.570;9.964;2023-02-24T16:38:56;3.10;;;1.40;;
44816;SDS011;30529;53.570;9.964;2023-02-24T16:41:22;9.67;;;1.87;;
44816;SDS011;30529;53.570;9.964;2023-02-24T16:43:52;5.77;;;1.70;;
44816;SDS011;30529;53.570;9.964;2023-02-24T16:46:19;9.77;;;1.90;;
44816;SDS011;30529;53.570;9.964;2023-02-24T16:48:48;8.87;;;1.93;;
44816;SDS011;30529;53.570;9.964;2023-02-24T16:51:17;8.77;;;2.30;;
44816;SDS011;30529;53.570;9.964;2023-02-24T16:53:43;10.97;;;2.30;;
44816;SDS011;30529;53.570;9.964;2023-02-24T16:56:09;12.23;;;2.23;;
44816;SDS011;30529;53.570;9.964;2023-02-24T16:58:36;14.57;;;3.77;;
44816;SDS011;30529;53.570;9.964;2023-02-24T17:01:03;7.73;;;2.97;;
44816;SDS011;30529;53.570;9.964;2023-02-24T17:03:43;8.97;;;2.27;;
44816;SDS011;30529;53.570;9.964;2023-02-24T17:06:13;14.10;;;3.00;;
44816;SDS011;30529;53.570;9.964;2023-02-24T17:08:39;13.47;;;2.17;;
44816;SDS011;30529;53.570;9.964;2023-02-24T17:11:10;12.83;;;2.40;;
44816;SDS011;30529;53.570;9.964;2023-02-24T17:13:40;9.43;;;2.50;;
44816;SDS011;30529;53.570;9.964;2023-02-24T17:16:08;16.60;;;3.00;;
44816;SDS011;30529;53.570;9.964;2023-02-24T17:18:35;17.23;;;3.37;;
44816;SDS011;30529;53.570;9.964;2023-02-24T17:21:01;12.63;;;2.70;;
44816;SDS011;30529;53.570;9.964;2023-02-24T17:23:28;17.10;;;4.03;;
44816;SDS011;30529;53.570;9.964;2023-02-24T17:25:55;13.77;;;3.57;;